Albrightsville, Pennsylvania
Current Conditions -  °F | °C
As of 6:53 PM on Wednesday 22 Oct 2014 (Local Time) from KMPO Reporting Station
Light Rain Light Rain  
Wind Chill: 42°   Ceiling: 1400
Heat Index: 48°   Visibility: 10mi
Dew Point: 44°   Wind: 15mph
Humidity: 86%   Direction: 360°N
Pressure: 29.9"   Gusts: 25mph
Location:  41°N, 75.53°W
Report Text: KMPO 222253Z AUTO 36013G22KT 10SM -RA OVC014 09/07 A2990 RMK AO2 PK WND 33027/2154 RAB09 SLP131 T00890067 TSNO PNO $
Loading
Personal Weather Stations






























Interactive Weather Map
Tropical Storm Tracking
New forecast layout! Learn more

10-Day Weather Forecast

Advertisements
Track Severe Weather on mobile